createdAt,value
2023-03-13T00:00:22.513Z,963.5400
2023-03-13T00:01:24.804Z,963.5200
2023-03-13T00:02:27.188Z,963.5600
2023-03-13T00:03:29.475Z,963.5200
2023-03-13T00:04:31.850Z,963.5400
2023-03-13T00:05:34.196Z,963.5400
2023-03-13T00:06:36.492Z,963.5000
2023-03-13T00:07:38.870Z,963.4800
2023-03-13T00:08:41.154Z,963.4700
2023-03-13T00:09:43.487Z,963.4700
2023-03-13T00:10:43.654Z,963.4500
2023-03-13T00:11:46.002Z,963.4300
2023-03-13T00:12:48.381Z,963.4100
2023-03-13T00:13:50.684Z,963.3700
2023-03-13T00:14:53.018Z,963.3700
2023-03-13T00:15:55.385Z,963.3500
2023-03-13T00:16:55.680Z,963.3700
2023-03-13T00:17:57.959Z,963.3700
2023-03-13T00:19:00.324Z,963.4100
2023-03-13T00:20:02.713Z,963.3900
2023-03-13T00:21:02.984Z,963.3700
2023-03-13T00:22:05.298Z,963.4100
2023-03-13T00:23:07.667Z,963.3900
2023-03-13T00:24:09.983Z,963.3700
2023-03-13T00:25:12.341Z,963.3500
2023-03-13T00:26:12.562Z,963.3900
2023-03-13T00:27:14.914Z,963.3300
2023-03-13T00:28:17.388Z,963.3100
2023-03-13T00:29:19.618Z,963.3100
2023-03-13T00:30:21.957Z,963.2700
2023-03-13T00:31:22.399Z,963.2300
2023-03-13T00:32:24.509Z,963.2700
2023-03-13T00:33:26.796Z,963.2500
2023-03-13T00:34:29.054Z,963.2100
2023-03-13T00:35:31.427Z,963.2100
2023-03-13T00:36:31.603Z,963.1700
2023-03-13T00:37:33.952Z,963.1700
2023-03-13T00:38:36.271Z,963.1300
2023-03-13T00:39:38.615Z,963.1300
2023-03-13T00:40:40.962Z,963.1300
2023-03-13T00:41:41.196Z,963.1300
2023-03-13T00:42:43.557Z,963.1300
2023-03-13T00:43:46.034Z,963.1300
2023-03-13T00:44:48.281Z,963.1500
2023-03-13T00:45:50.716Z,963.1500
2023-03-13T00:46:50.882Z,963.1900
2023-03-13T00:47:53.245Z,963.1900
2023-03-13T00:48:55.725Z,963.1700
2023-03-13T00:49:57.978Z,963.1900
2023-03-13T00:50:58.204Z,963.1700
2023-03-13T00:52:00.593Z,963.1700
2023-03-13T00:53:02.906Z,963.1300
2023-03-13T00:54:05.278Z,963.1500
2023-03-13T00:55:07.562Z,963.1500
2023-03-13T00:56:07.731Z,963.1500
2023-03-13T00:57:09.993Z,963.1300
2023-03-13T00:58:12.295Z,963.1100
2023-03-13T00:59:14.644Z,963.1500
2023-03-13T01:00:16.903Z,963.1300
2023-03-13T01:01:19.200Z,963.1500
2023-03-13T01:02:19.471Z,963.1500
2023-03-13T01:03:21.770Z,963.1500
2023-03-13T01:04:24.047Z,963.1300
2023-03-13T01:05:26.348Z,963.1500
2023-03-13T01:06:28.666Z,963.1100
2023-03-13T01:07:30.968Z,963.1300
2023-03-13T01:08:33.223Z,963.1100
2023-03-13T01:09:33.389Z,963.0700
2023-03-13T01:10:35.662Z,963.1100
2023-03-13T01:11:37.934Z,963.0900
2023-03-13T01:12:40.171Z,963.0700
2023-03-13T01:13:42.459Z,963.0500
2023-03-13T01:14:44.774Z,963.0300
2023-03-13T01:15:47.034Z,963.0000
2023-03-13T01:16:47.164Z,963.0000
2023-03-13T01:17:49.376Z,963.0000
2023-03-13T01:18:51.611Z,962.9400
2023-03-13T01:19:53.895Z,962.9200
2023-03-13T01:20:56.202Z,962.9000
2023-03-13T01:21:58.495Z,962.9000
2023-03-13T01:23:00.810Z,962.9000
2023-03-13T01:24:03.086Z,962.8800
2023-03-13T01:25:03.344Z,962.8800
2023-03-13T01:26:05.520Z,962.8800
2023-03-13T01:27:07.783Z,962.8600
2023-03-13T01:28:10.070Z,962.8400
2023-03-13T01:29:12.362Z,962.8600
2023-03-13T01:30:14.680Z,962.8400
2023-03-13T01:31:16.954Z,962.8600
2023-03-13T01:32:17.114Z,962.8200
2023-03-13T01:33:19.313Z,962.8400
2023-03-13T01:34:21.573Z,962.8000
2023-03-13T01:35:23.990Z,962.7800
2023-03-13T01:36:26.105Z,962.8000
2023-03-13T01:37:28.367Z,962.8200
2023-03-13T01:38:30.654Z,962.8200
2023-03-13T01:39:32.908Z,962.8200
2023-03-13T01:40:33.094Z,962.8400
2023-03-13T01:41:35.297Z,962.8000
2023-03-13T01:42:37.566Z,962.7800
2023-03-13T01:43:39.849Z,962.7400
2023-03-13T01:44:42.096Z,962.7800
2023-03-13T01:45:44.381Z,962.7600
2023-03-13T01:46:46.663Z,962.7600
2023-03-13T01:47:48.857Z,962.7600
2023-03-13T01:48:51.075Z,962.7600
2023-03-13T01:49:51.174Z,962.7200
2023-03-13T01:50:53.373Z,962.7000
2023-03-13T01:51:55.593Z,962.6800
2023-03-13T01:52:57.845Z,962.6600
2023-03-13T01:54:00.101Z,962.6800
2023-03-13T01:55:02.268Z,962.6400
2023-03-13T01:56:04.651Z,962.6200
2023-03-13T01:57:06.780Z,962.5800
2023-03-13T01:58:09.048Z,962.6200
2023-03-13T01:59:11.328Z,962.6400
2023-03-13T02:00:11.465Z,962.6000
2023-03-13T02:01:46.445Z,962.5600
2023-03-13T02:02:48.646Z,962.6000
2023-03-13T02:03:50.852Z,962.5800
2023-03-13T02:04:53.139Z,962.5400
2023-03-13T02:05:55.446Z,962.5400
2023-03-13T02:06:57.832Z,962.5400
2023-03-13T02:07:57.881Z,962.5300
2023-03-13T02:09:00.119Z,962.4700
2023-03-13T02:10:02.391Z,962.4700
2023-03-13T02:11:04.617Z,962.4500
2023-03-13T02:12:06.998Z,962.4100
2023-03-13T02:13:09.181Z,962.4500
2023-03-13T02:14:11.485Z,962.3900
2023-03-13T02:15:13.783Z,962.4500
2023-03-13T02:16:13.979Z,962.4700
2023-03-13T02:17:16.236Z,962.4500
2023-03-13T02:18:18.353Z,962.4500
2023-03-13T02:19:20.545Z,962.4700
2023-03-13T02:20:22.788Z,962.4500
2023-03-13T02:21:25.001Z,962.4100
2023-03-13T02:22:27.336Z,962.4300
2023-03-13T02:23:29.430Z,962.3900
2023-03-13T02:24:31.726Z,962.3900
2023-03-13T02:25:34.033Z,962.3700
2023-03-13T02:26:36.267Z,962.4100
2023-03-13T02:27:36.472Z,962.4100
2023-03-13T02:28:38.641Z,962.3700
2023-03-13T02:29:40.956Z,962.4100
2023-03-13T02:30:43.262Z,962.3900
2023-03-13T02:31:45.609Z,962.3700
2023-03-13T02:32:47.989Z,962.3300
2023-03-13T02:33:47.953Z,962.3100
2023-03-13T02:34:48.104Z,962.3100
2023-03-13T02:35:50.428Z,962.3100
2023-03-13T02:36:52.712Z,962.3300
2023-03-13T02:37:55.151Z,962.2900
2023-03-13T02:38:57.418Z,962.2700
2023-03-13T02:39:57.576Z,962.2700
2023-03-13T02:40:59.942Z,962.2500
2023-03-13T02:42:02.239Z,962.2500
2023-03-13T02:43:04.631Z,962.2100
2023-03-13T02:44:06.940Z,962.2100
2023-03-13T02:45:07.142Z,962.1400
2023-03-13T02:46:09.500Z,962.1400
2023-03-13T02:47:11.886Z,962.0600
2023-03-13T02:48:14.226Z,962.0600
2023-03-13T02:49:16.594Z,962.0200
2023-03-13T02:50:16.814Z,961.9800
2023-03-13T02:51:19.172Z,961.9800
2023-03-13T02:52:21.531Z,961.9400
2023-03-13T02:53:24.029Z,961.9200
2023-03-13T02:54:26.242Z,961.9400
2023-03-13T02:55:26.465Z,961.8400
2023-03-13T02:56:28.851Z,961.9200
2023-03-13T02:57:31.207Z,961.7600
2023-03-13T02:58:35.622Z,961.8000
2023-03-13T02:59:33.803Z,961.7800
2023-03-13T03:00:36.200Z,961.7800
2023-03-13T03:01:38.506Z,961.7800
2023-03-13T03:02:40.807Z,961.9200
2023-03-13T03:03:43.221Z,961.8400
2023-03-13T03:04:45.469Z,961.8400
2023-03-13T03:05:45.643Z,961.8200
2023-03-13T03:06:48.028Z,961.9200
2023-03-13T03:07:50.410Z,961.9200
2023-03-13T03:08:52.784Z,961.9800
2023-03-13T03:09:53.008Z,961.9400
2023-03-13T03:10:55.355Z,962.0200
2023-03-13T03:11:57.765Z,962.0200
2023-03-13T03:13:00.086Z,961.9800
2023-03-13T03:14:00.293Z,961.9600
2023-03-13T03:15:02.570Z,962.0000
2023-03-13T03:16:04.987Z,962.0200
2023-03-13T03:17:07.254Z,961.9800
2023-03-13T03:18:07.480Z,962.0200
2023-03-13T03:19:09.891Z,962.0200
2023-03-13T03:20:12.359Z,962.0400
2023-03-13T03:21:14.574Z,961.9800
2023-03-13T03:22:16.922Z,961.9800
2023-03-13T03:23:17.122Z,961.9800
2023-03-13T03:24:19.469Z,962.0200
2023-03-13T03:25:21.780Z,962.0000
2023-03-13T03:26:24.114Z,962.0000
2023-03-13T03:27:26.426Z,962.0000
2023-03-13T03:28:26.562Z,961.9800
2023-03-13T03:29:28.898Z,961.9800
2023-03-13T03:30:31.132Z,961.9400
2023-03-13T03:31:33.415Z,961.9400
2023-03-13T03:32:35.677Z,961.9200
2023-03-13T03:33:37.950Z,961.9200
2023-03-13T03:34:40.422Z,961.9200
2023-03-13T03:35:40.530Z,961.8200
2023-03-13T03:36:42.888Z,961.8200
2023-03-13T03:37:45.232Z,961.8400
2023-03-13T03:38:48.417Z,961.9400
2023-03-13T03:39:49.911Z,961.8400
2023-03-13T03:40:50.095Z,961.8200
2023-03-13T03:41:52.428Z,961.8200
2023-03-13T03:42:54.808Z,961.8000
2023-03-13T03:43:57.125Z,961.8000
2023-03-13T03:44:59.550Z,961.8000
2023-03-13T03:46:01.822Z,961.7400
2023-03-13T03:47:01.913Z,961.7800
2023-03-13T03:48:04.223Z,961.7600
2023-03-13T03:49:06.532Z,961.7600
2023-03-13T03:50:08.873Z,961.7600
2023-03-13T03:51:11.180Z,961.8200
2023-03-13T03:52:11.294Z,961.7600
2023-03-13T03:53:13.612Z,961.7800
2023-03-13T03:54:15.855Z,961.8200
2023-03-13T03:55:18.247Z,961.8400
2023-03-13T03:56:20.460Z,961.9200
2023-03-13T03:57:22.786Z,961.8200
2023-03-13T03:58:25.161Z,961.9400
2023-03-13T03:59:25.221Z,961.9400
2023-03-13T04:00:27.610Z,961.9400
2023-03-13T04:01:29.782Z,961.9800
2023-03-13T04:02:32.075Z,961.9800
2023-03-13T04:03:34.400Z,962.0000
2023-03-13T04:04:36.619Z,962.0000
2023-03-13T04:05:38.881Z,962.0200
2023-03-13T04:06:39.032Z,962.0000
2023-03-13T04:07:41.320Z,962.0800
2023-03-13T04:09:37.514Z,962.0600
2023-03-13T04:10:39.857Z,962.0200
2023-03-13T04:11:42.074Z,961.9600
2023-03-13T04:12:44.336Z,962.0000
2023-03-13T04:13:44.509Z,962.0000
2023-03-13T04:14:46.780Z,962.0000
2023-03-13T04:15:49.179Z,961.9800
2023-03-13T04:16:51.432Z,962.0200
2023-03-13T04:17:53.687Z,962.0400
2023-03-13T04:18:55.988Z,962.0600
2023-03-13T04:19:58.326Z,962.0200
2023-03-13T04:20:58.498Z,962.0000
2023-03-13T04:22:00.806Z,961.9400
2023-03-13T04:23:03.003Z,961.8200
2023-03-13T04:24:05.198Z,961.7200
2023-03-13T04:25:07.464Z,961.6800
2023-03-13T04:26:09.849Z,961.5600
2023-03-13T04:27:12.051Z,961.5800
2023-03-13T04:28:14.387Z,961.5600
2023-03-13T04:29:14.542Z,961.5800
2023-03-13T04:30:18.637Z,961.5800
2023-03-13T04:31:19.347Z,961.6000
2023-03-13T04:32:21.594Z,961.6200
2023-03-13T04:33:23.825Z,961.6200
2023-03-13T04:34:26.168Z,961.6200
2023-03-13T04:35:26.431Z,961.6400
2023-03-13T04:36:28.713Z,961.6200
2023-03-13T04:37:30.999Z,961.5800
2023-03-13T04:38:33.348Z,961.5400
2023-03-13T04:39:35.706Z,961.5100
2023-03-13T04:40:35.913Z,961.5400
2023-03-13T04:41:38.245Z,961.5300
2023-03-13T04:42:40.591Z,961.5400
2023-03-13T04:43:42.944Z,961.5300
2023-03-13T04:44:43.900Z,961.5100
2023-03-13T04:45:45.483Z,961.4900
2023-03-13T04:46:47.971Z,961.4700
2023-03-13T04:47:50.168Z,961.4700
2023-03-13T04:48:52.490Z,961.4700
2023-03-13T04:49:54.809Z,961.4900
2023-03-13T04:50:55.024Z,961.4700
2023-03-13T04:51:57.353Z,961.4900
2023-03-13T04:52:59.626Z,961.4700
2023-03-13T04:54:01.977Z,961.5100
2023-03-13T04:55:04.368Z,961.4900
2023-03-13T04:56:04.543Z,961.4700
2023-03-13T04:57:06.921Z,961.4500
2023-03-13T04:58:09.250Z,961.4500
2023-03-13T04:59:11.601Z,961.4300
2023-03-13T05:00:13.932Z,961.4300
2023-03-13T05:01:14.109Z,961.4100
2023-03-13T05:02:16.309Z,961.4100
2023-03-13T05:03:18.555Z,961.4100
2023-03-13T05:04:20.824Z,961.4100
2023-03-13T05:05:23.214Z,961.3700
2023-03-13T05:06:25.347Z,961.3300
2023-03-13T05:07:27.673Z,961.3500
2023-03-13T05:08:29.899Z,961.3700
2023-03-13T05:09:30.048Z,961.3900
2023-03-13T05:10:32.340Z,961.4100
2023-03-13T05:11:34.641Z,961.3900
2023-03-13T05:12:36.945Z,961.4100
2023-03-13T05:13:39.222Z,961.3900
2023-03-13T05:14:41.544Z,961.4500
2023-03-13T05:15:43.952Z,961.4100
2023-03-13T05:16:44.030Z,961.4300
2023-03-13T05:17:46.370Z,961.4300
2023-03-13T05:18:48.674Z,961.4100
2023-03-13T05:19:50.973Z,961.3500
2023-03-13T05:20:53.295Z,961.3700
2023-03-13T05:21:53.451Z,961.3300
2023-03-13T05:22:55.780Z,961.3300
2023-03-13T05:23:58.116Z,961.3500
2023-03-13T05:25:00.431Z,961.3500
2023-03-13T05:26:02.806Z,961.3100
2023-03-13T05:27:03.032Z,961.3300
2023-03-13T05:28:05.432Z,961.2900
2023-03-13T05:29:07.748Z,961.3300
2023-03-13T05:30:10.127Z,961.3300
2023-03-13T05:31:12.690Z,961.3300
2023-03-13T05:32:12.730Z,961.2700
2023-03-13T05:33:15.220Z,961.2300
2023-03-13T05:34:17.482Z,961.2100
2023-03-13T05:35:19.824Z,961.2100
2023-03-13T05:36:20.064Z,961.2100
2023-03-13T05:37:22.441Z,961.1700
2023-03-13T05:38:24.930Z,961.1500
2023-03-13T05:39:27.189Z,961.1500
2023-03-13T05:40:29.545Z,961.1700
2023-03-13T05:41:29.751Z,961.2300
2023-03-13T05:42:32.017Z,961.1900
2023-03-13T05:43:34.362Z,961.2300
2023-03-13T05:44:36.595Z,961.2300
2023-03-13T05:45:36.789Z,961.2100
2023-03-13T05:46:39.253Z,961.1700
2023-03-13T05:47:39.332Z,961.1700
2023-03-13T05:48:41.792Z,961.2300
2023-03-13T05:49:44.027Z,961.2100
2023-03-13T05:50:46.352Z,961.2100
2023-03-13T05:51:48.648Z,961.2100
2023-03-13T05:52:48.810Z,961.2700
2023-03-13T05:53:51.184Z,961.2500
2023-03-13T05:54:53.475Z,961.2700
2023-03-13T05:55:55.832Z,961.2300
2023-03-13T05:56:58.228Z,961.1900
2023-03-13T05:57:58.308Z,961.1700
2023-03-13T05:59:00.737Z,961.1300
2023-03-13T06:00:02.982Z,961.1700
2023-03-13T06:01:05.288Z,961.1300
2023-03-13T06:02:07.679Z,961.1700
2023-03-13T06:03:07.865Z,961.1700
2023-03-13T06:04:10.435Z,961.1500
2023-03-13T06:05:12.583Z,961.1300
2023-03-13T06:06:14.968Z,961.1300
2023-03-13T06:07:17.351Z,961.1500
2023-03-13T06:08:17.536Z,961.1300
2023-03-13T06:09:20.014Z,961.1100
2023-03-13T06:10:22.246Z,961.1100
2023-03-13T06:11:24.547Z,961.1300
2023-03-13T06:12:26.872Z,961.0900
2023-03-13T06:13:27.026Z,961.0600
2023-03-13T06:14:29.368Z,961.0400
2023-03-13T06:15:31.650Z,961.0400
2023-03-13T06:16:34.127Z,961.0400
2023-03-13T06:17:36.385Z,961.0600
2023-03-13T06:18:38.696Z,961.0200
2023-03-13T06:19:38.928Z,961.0200
2023-03-13T06:20:42.640Z,961.0200
2023-03-13T06:21:43.630Z,961.0000
2023-03-13T06:22:45.974Z,960.9600
2023-03-13T06:23:48.328Z,961.0000
2023-03-13T06:24:48.530Z,961.0400
2023-03-13T06:25:50.882Z,961.0200
2023-03-13T06:26:53.273Z,961.0400
2023-03-13T06:27:55.577Z,961.0400
2023-03-13T06:28:57.911Z,961.0400
2023-03-13T06:29:58.162Z,961.0700
2023-03-13T06:31:00.567Z,961.0700
2023-03-13T06:32:03.017Z,961.0700
2023-03-13T06:33:05.312Z,961.0400
2023-03-13T06:34:05.186Z,961.0600
2023-03-13T06:35:07.548Z,961.0900
2023-03-13T06:36:09.856Z,961.0900
2023-03-13T06:37:12.118Z,961.1100
2023-03-13T06:38:14.415Z,961.1100
2023-03-13T06:39:16.751Z,961.1100
2023-03-13T06:40:19.106Z,961.0700
2023-03-13T06:41:19.226Z,961.1100
2023-03-13T06:42:21.493Z,961.1100
2023-03-13T06:43:23.792Z,961.0900
2023-03-13T06:44:26.088Z,961.0700
2023-03-13T06:45:28.407Z,961.0700
2023-03-13T06:46:30.791Z,961.0600
2023-03-13T06:47:30.858Z,961.0000
2023-03-13T06:48:33.175Z,961.0400
2023-03-13T06:49:35.416Z,961.0200
2023-03-13T06:50:37.681Z,961.0400
2023-03-13T06:51:39.976Z,961.0600
2023-03-13T06:52:44.254Z,961.1100
2023-03-13T06:53:44.595Z,961.1100
2023-03-13T06:54:44.793Z,961.0900
2023-03-13T06:55:47.138Z,961.1100
2023-03-13T06:56:49.362Z,961.1300
2023-03-13T06:57:51.691Z,961.0900
2023-03-13T06:58:54.021Z,961.0900
2023-03-13T06:59:54.225Z,961.0900
2023-03-13T07:00:56.606Z,961.0600
2023-03-13T07:01:58.885Z,961.0600
2023-03-13T07:03:01.168Z,961.0400
2023-03-13T07:04:03.618Z,961.0400
2023-03-13T07:05:05.824Z,960.9400
2023-03-13T07:06:08.114Z,960.9400
2023-03-13T07:07:08.223Z,960.9600
2023-03-13T07:08:10.592Z,960.9200
2023-03-13T07:09:12.883Z,960.8600
2023-03-13T07:10:15.216Z,960.8200
2023-03-13T07:11:15.393Z,960.7600
2023-03-13T07:12:17.698Z,960.7600
2023-03-13T07:13:20.010Z,960.7600
2023-03-13T07:14:22.336Z,960.7600
2023-03-13T07:15:24.604Z,960.7200
2023-03-13T07:16:26.999Z,960.7600
2023-03-13T07:17:27.262Z,960.7800
2023-03-13T07:18:29.518Z,960.7800
2023-03-13T07:19:31.911Z,960.7800
2023-03-13T07:22:06.830Z,960.8200
2023-03-13T07:23:08.904Z,960.8400
2023-03-13T07:24:11.152Z,960.8800
2023-03-13T07:25:13.288Z,960.8600
2023-03-13T07:26:15.556Z,960.9000
2023-03-13T07:27:17.886Z,960.9200
2023-03-13T07:28:17.927Z,960.8400
2023-03-13T07:29:20.221Z,960.9000
2023-03-13T07:30:22.519Z,960.8600
2023-03-13T07:31:24.913Z,960.8600
2023-03-13T07:32:27.135Z,960.8400
2023-03-13T07:33:27.209Z,960.8200
2023-03-13T07:34:29.479Z,960.8400
2023-03-13T07:35:31.763Z,960.8400
2023-03-13T07:36:34.116Z,960.9400
2023-03-13T07:37:36.418Z,960.9000
2023-03-13T07:38:38.591Z,960.9000
2023-03-13T07:39:40.928Z,960.9200
2023-03-13T07:40:41.040Z,960.9400
2023-03-13T07:41:43.343Z,960.9600
2023-03-13T07:42:45.742Z,960.9800
2023-03-13T07:43:47.931Z,961.0200
2023-03-13T07:44:50.232Z,961.0200
2023-03-13T07:45:52.639Z,961.0400
2023-03-13T07:46:54.827Z,961.0000
2023-03-13T07:47:54.987Z,960.9800
2023-03-13T07:48:57.190Z,960.9800
2023-03-13T07:49:59.478Z,961.0000
2023-03-13T07:51:01.783Z,961.0000
2023-03-13T07:52:04.100Z,961.0200
2023-03-13T07:53:07.152Z,961.0700
2023-03-13T07:54:06.623Z,961.0600
2023-03-13T07:55:08.919Z,961.0600
2023-03-13T07:56:11.395Z,961.0200
2023-03-13T07:57:13.672Z,960.9600
2023-03-13T07:58:15.992Z,960.9600
2023-03-13T07:59:18.217Z,960.9400
2023-03-13T08:00:20.537Z,960.9800
2023-03-13T08:01:25.122Z,960.9600
2023-03-13T08:02:25.117Z,960.9600
2023-03-13T08:03:27.578Z,960.9400
2023-03-13T08:04:29.749Z,960.9400
2023-03-13T08:05:29.912Z,960.9800
2023-03-13T08:06:33.980Z,960.9400
2023-03-13T08:07:34.457Z,960.9000
2023-03-13T08:08:36.904Z,960.9000
2023-03-13T08:09:39.132Z,960.9000
2023-03-13T08:10:41.472Z,960.9200
2023-03-13T08:11:41.657Z,960.8400
2023-03-13T08:12:43.970Z,960.8400
2023-03-13T08:13:46.272Z,960.8600
2023-03-13T08:14:48.534Z,960.8400
2023-03-13T08:15:50.758Z,960.8200
2023-03-13T08:16:53.136Z,960.8200
2023-03-13T08:17:55.256Z,960.7800
2023-03-13T08:18:57.503Z,960.7600
2023-03-13T08:19:57.577Z,960.8600
2023-03-13T08:20:59.862Z,960.8200
2023-03-13T08:22:02.139Z,960.8200
2023-03-13T08:23:04.374Z,960.8400
2023-03-13T08:24:06.672Z,960.8200
2023-03-13T08:25:08.923Z,960.8200
2023-03-13T08:26:11.194Z,960.8200
2023-03-13T08:27:13.486Z,960.8400
2023-03-13T08:28:13.555Z,960.8200
2023-03-13T08:29:15.800Z,960.8200
2023-03-13T08:30:18.021Z,960.8800
2023-03-13T08:31:20.458Z,960.8800
2023-03-13T08:32:20.468Z,960.8400
2023-03-13T08:33:22.712Z,960.8600
2023-03-13T08:34:25.080Z,960.8200
2023-03-13T08:35:27.285Z,960.7800
2023-03-13T08:36:29.499Z,960.7600
2023-03-13T08:37:29.669Z,960.7400
2023-03-13T08:38:31.919Z,960.7600
2023-03-13T08:39:34.313Z,960.7200
2023-03-13T08:40:36.438Z,960.6600
2023-03-13T08:41:38.699Z,960.6000
2023-03-13T08:42:40.978Z,960.6200
2023-03-13T08:43:43.373Z,960.6200
2023-03-13T08:44:43.459Z,960.5900
2023-03-13T08:45:45.759Z,960.5900
2023-03-13T08:46:47.989Z,960.5900
2023-03-13T08:47:50.247Z,960.6000
2023-03-13T08:48:52.532Z,960.5900
2023-03-13T08:49:54.934Z,960.5900
2023-03-13T08:50:57.089Z,960.5900
2023-03-13T08:51:59.354Z,960.5700
2023-03-13T08:52:59.435Z,960.5300
2023-03-13T08:54:01.681Z,960.5300
2023-03-13T08:55:04.065Z,960.5300
2023-03-13T08:56:06.206Z,960.5300
2023-03-13T08:57:08.498Z,960.5100
2023-03-13T08:58:10.779Z,960.4500
2023-03-13T08:59:13.119Z,960.4500
2023-03-13T09:00:15.560Z,960.4100
2023-03-13T09:01:15.564Z,960.4100
2023-03-13T09:02:17.922Z,960.3900
2023-03-13T09:03:20.154Z,960.3700
2023-03-13T09:04:22.381Z,960.3700
2023-03-13T09:05:24.643Z,960.2900
2023-03-13T09:06:26.873Z,960.2700
2023-03-13T09:08:10.133Z,960.2900
2023-03-13T09:09:10.143Z,960.2500
2023-03-13T09:10:12.369Z,960.3100
2023-03-13T09:11:14.700Z,960.3100
2023-03-13T09:12:29.970Z,960.2900
2023-03-13T09:13:19.175Z,960.2300
2023-03-13T09:14:21.415Z,960.2900
2023-03-13T09:15:23.706Z,960.2700
2023-03-13T09:16:23.925Z,960.2700
2023-03-13T09:17:26.185Z,960.1900
2023-03-13T09:18:28.571Z,960.1500
2023-03-13T09:19:30.816Z,960.1700
2023-03-13T09:20:33.129Z,960.1500
2023-03-13T09:21:35.542Z,960.1500
2023-03-13T09:22:35.596Z,960.1500
2023-03-13T09:23:37.947Z,960.1300
2023-03-13T09:24:40.217Z,960.1300
2023-03-13T09:25:42.547Z,960.1300
2023-03-13T09:27:00.148Z,960.0600
2023-03-13T09:27:47.133Z,959.9800
2023-03-13T09:28:49.413Z,960.0200
2023-03-13T09:29:49.571Z,959.9800
2023-03-13T09:30:51.917Z,959.9200
2023-03-13T09:31:54.211Z,959.8800
2023-03-13T09:32:56.482Z,959.8600
2023-03-13T09:33:58.724Z,959.8400
2023-03-13T09:35:01.005Z,959.8400
2023-03-13T09:36:03.274Z,959.8600
2023-03-13T09:37:03.327Z,959.8400
2023-03-13T09:38:05.512Z,959.7800
2023-03-13T09:39:07.758Z,959.7400
2023-03-13T09:40:10.006Z,959.7400
2023-03-13T09:41:11.146Z,959.7300
2023-03-13T09:42:13.521Z,959.7800
2023-03-13T09:43:15.652Z,959.7600
2023-03-13T09:44:17.901Z,959.7600
2023-03-13T09:45:20.083Z,959.7400
2023-03-13T09:46:22.414Z,959.7100
2023-03-13T09:47:24.595Z,959.6900
2023-03-13T09:48:26.830Z,959.7100
2023-03-13T09:49:29.085Z,959.7100
2023-03-13T09:50:29.207Z,959.6700
2023-03-13T09:51:31.466Z,959.6300
2023-03-13T09:52:33.728Z,959.6300
2023-03-13T09:53:35.974Z,959.5900
2023-03-13T09:54:38.307Z,959.5700
2023-03-13T09:55:40.488Z,959.5100
2023-03-13T09:56:42.708Z,959.5100
2023-03-13T09:57:45.050Z,959.5100
2023-03-13T09:58:45.060Z,959.4900
2023-03-13T09:59:47.290Z,959.4700
2023-03-13T10:00:49.553Z,959.4900
2023-03-13T10:01:51.891Z,959.4700
2023-03-13T10:02:54.219Z,959.4500
2023-03-13T10:03:56.438Z,959.4300
2023-03-13T10:04:58.668Z,959.4100
2023-03-13T10:06:00.907Z,959.4100
2023-03-13T10:07:00.969Z,959.3500
2023-03-13T10:08:03.295Z,959.3700
2023-03-13T10:09:05.430Z,959.2700
2023-03-13T10:10:08.101Z,959.2100
2023-03-13T10:11:09.970Z,959.2300
2023-03-13T10:12:12.212Z,959.2100
2023-03-13T10:13:14.475Z,959.1900
2023-03-13T10:14:16.716Z,959.1700
2023-03-13T10:15:18.924Z,959.1900
2023-03-13T10:16:21.253Z,959.2300
2023-03-13T10:17:23.439Z,959.2300
2023-03-13T10:18:25.649Z,959.2500
2023-03-13T10:19:27.848Z,959.3500
2023-03-13T10:20:30.155Z,959.2500
2023-03-13T10:21:32.358Z,959.2300
2023-03-13T10:22:34.617Z,959.1900
2023-03-13T10:23:36.961Z,959.1200
2023-03-13T10:24:39.156Z,959.0200
2023-03-13T10:25:41.508Z,959.0400
2023-03-13T10:26:43.786Z,959.0000
2023-03-13T10:27:46.058Z,959.0200
2023-03-13T10:28:48.405Z,958.9800
2023-03-13T10:29:50.569Z,958.9200
2023-03-13T10:30:50.742Z,958.9200
2023-03-13T10:31:52.952Z,958.9200
2023-03-13T10:32:55.271Z,958.9000
2023-03-13T10:33:57.532Z,958.8800
2023-03-13T10:34:59.638Z,958.9000
2023-03-13T10:36:01.951Z,958.8400
2023-03-13T10:37:04.154Z,958.8000
2023-03-13T10:38:06.397Z,958.7800
2023-03-13T10:39:08.754Z,958.7800
2023-03-13T10:40:10.921Z,958.7400
2023-03-13T10:41:13.214Z,958.6700
2023-03-13T10:42:15.570Z,958.6700
2023-03-13T10:43:15.547Z,958.6700
2023-03-13T10:44:17.891Z,958.6900
2023-03-13T10:45:20.066Z,958.7100
2023-03-13T10:46:22.337Z,958.6900
2023-03-13T10:47:24.539Z,958.6500
2023-03-13T10:48:26.767Z,958.6300
2023-03-13T10:49:29.049Z,958.6700
2023-03-13T10:50:31.224Z,958.6500
2023-03-13T10:51:33.482Z,958.6500
2023-03-13T10:52:35.736Z,958.6100
2023-03-13T10:53:38.001Z,958.6100
2023-03-13T10:54:40.377Z,958.6900
2023-03-13T10:55:40.377Z,958.6300
2023-03-13T10:56:42.584Z,958.6100
2023-03-13T10:57:44.823Z,958.5900
2023-03-13T10:58:47.122Z,958.5500
2023-03-13T10:59:49.337Z,958.5300
2023-03-13T11:00:51.516Z,958.5300
2023-03-13T11:01:53.783Z,958.5300
2023-03-13T11:02:56.179Z,958.4900
2023-03-13T11:03:58.398Z,958.4900
2023-03-13T11:05:00.673Z,958.4500
2023-03-13T11:06:02.817Z,958.4300
2023-03-13T11:07:05.139Z,958.3700
2023-03-13T11:08:05.225Z,958.3100
2023-03-13T11:09:07.415Z,958.2700
2023-03-13T11:10:09.780Z,958.2500
2023-03-13T11:11:11.940Z,958.2100
2023-03-13T11:12:14.361Z,958.2300
2023-03-13T11:13:19.953Z,958.2300
2023-03-13T11:14:18.805Z,958.1900
2023-03-13T11:15:21.358Z,958.1400
2023-03-13T11:16:23.521Z,958.0800
2023-03-13T11:17:25.685Z,958.1200
2023-03-13T11:18:28.003Z,958.0800
2023-03-13T11:19:28.146Z,958.0000
2023-03-13T11:20:30.453Z,957.9400
2023-03-13T11:21:32.668Z,957.8800
2023-03-13T11:22:34.906Z,957.9400
2023-03-13T11:23:35.009Z,957.9200
2023-03-13T11:24:37.265Z,957.9600
2023-03-13T11:25:39.600Z,957.9600
2023-03-13T11:26:43.494Z,957.9200
2023-03-13T11:27:42.001Z,957.9200
2023-03-13T11:28:44.256Z,957.8800
2023-03-13T11:29:46.566Z,957.8600
2023-03-13T11:30:48.949Z,957.8800
2023-03-13T11:31:49.046Z,957.8200
2023-03-13T11:32:51.436Z,957.7900
2023-03-13T11:33:53.651Z,957.8400
2023-03-13T11:34:55.884Z,957.7900
2023-03-13T11:35:58.271Z,957.8200
2023-03-13T11:37:00.436Z,957.8000
2023-03-13T11:38:02.654Z,957.7900
2023-03-13T11:39:04.849Z,957.7500
2023-03-13T11:40:07.082Z,957.7300
2023-03-13T11:41:09.272Z,957.6700
2023-03-13T11:42:11.471Z,957.6500
2023-03-13T11:43:24.517Z,957.6300
2023-03-13T11:44:16.043Z,957.6700
2023-03-13T11:45:18.344Z,957.6500
2023-03-13T11:46:21.016Z,957.6100
2023-03-13T11:47:20.751Z,957.5900
2023-03-13T11:48:23.012Z,957.6100
2023-03-13T11:49:25.274Z,957.5100
2023-03-13T11:50:27.547Z,957.5500
2023-03-13T11:51:27.701Z,957.5100
2023-03-13T11:52:29.887Z,957.4900
2023-03-13T11:53:32.148Z,957.5100
2023-03-13T11:54:34.408Z,957.3700
2023-03-13T11:55:36.677Z,957.4100
2023-03-13T11:56:39.025Z,957.3700
2023-03-13T11:58:30.796Z,957.3300
2023-03-13T11:59:32.796Z,957.4100
2023-03-13T12:00:35.069Z,957.3700
2023-03-13T12:01:37.338Z,957.3300
2023-03-13T12:02:39.756Z,957.2400
2023-03-13T12:03:39.872Z,957.2500
2023-03-13T12:04:42.176Z,957.2500
2023-03-13T12:05:44.316Z,957.2500
2023-03-13T12:06:46.598Z,957.2400
2023-03-13T12:07:48.880Z,957.1600
2023-03-13T12:08:51.188Z,957.1800
2023-03-13T12:09:53.478Z,957.1800
2023-03-13T12:10:53.648Z,957.1600
2023-03-13T12:11:55.937Z,957.0800